< < Back
Terminal Aerodrome Forecast


Current Version              Previous Versions:   1  2  3  4  5  6  7  8  9  

Terminal Aerodrome Forecast

713
FTUS42 KFFC 200908 AAB
TAFATL
TAF AMD
KATL 200908Z 2009/2112 02005KT 6SM -RA OVC045
     FM201200 03004KT 6SM -RA BR OVC025
     FM201400 05005KT P6SM VCSH OVC028
     FM201900 08005KT P6SM BKN035
     FM202200 35004KT P6SM SCT050
     FM210700 05004KT 5SM BR OVC025=

Latest METAR

844
SAUS70 KWBC 201100
MTRATL
METAR KATL 201052Z 05006KT 7SM FEW038 SCT070 BKN090 OVC150 06/04 A3013
RMK AO2 RAE39 SLP205 P0003 T00610044


USA.gov is the U.S. government's official web portal to all federal, state and local government web resources and services.